Terminal Aerodrome Forecast
Issued by NWS Bismarck, ND

Home | Current Version | Previous Version | Graphics & Text | Print | Product List | Glossary On
Versions: 1 2 3 4 5 6 7 8 9 10 11 12 13 14 15 16 17 18
000
FTUS43 KBIS 240348 AAB
TAFBIS
TAF AMD
KBIS 240348Z 2404/2424 17004KT P6SM SCT250
     FM240800 14005KT P6SM VCTS BKN080CB OVC120
     FM241200 16006KT P6SM SCT200
     FM241500 19008KT P6SM SCT250
     FM241900 21011KT P6SM SCT200
     FM242200 24012KT P6SM SCT060 SCT120=

USA.gov is the U.S. government's official web portal to all federal, state and local government web resources and services.